sensor_id;sensor_type;location;lat;lon;timestamp;P1;durP1;ratioP1;P2;durP2;ratioP2
26574;SDS011;67165;50.256;10.978;2023-08-08T00:00:23;6.43;;;3.70;;
26574;SDS011;67165;50.256;10.978;2023-08-08T00:02:48;8.57;;;3.88;;
26574;SDS011;67165;50.256;10.978;2023-08-08T00:05:14;8.23;;;3.28;;
26574;SDS011;67165;50.256;10.978;2023-08-08T00:07:39;5.22;;;3.58;;
26574;SDS011;67165;50.256;10.978;2023-08-08T00:10:05;5.65;;;3.30;;
26574;SDS011;67165;50.256;10.978;2023-08-08T00:12:31;7.78;;;3.13;;
26574;SDS011;67165;50.256;10.978;2023-08-08T00:14:57;5.68;;;3.28;;
26574;SDS011;67165;50.256;10.978;2023-08-08T00:17:23;7.75;;;3.25;;
26574;SDS011;67165;50.256;10.978;2023-08-08T00:19:48;9.65;;;3.33;;
26574;SDS011;67165;50.256;10.978;2023-08-08T00:22:14;8.90;;;3.33;;
26574;SDS011;67165;50.256;10.978;2023-08-08T00:24:40;8.13;;;3.38;;
26574;SDS011;67165;50.256;10.978;2023-08-08T00:27:05;7.05;;;3.30;;
26574;SDS011;67165;50.256;10.978;2023-08-08T00:29:31;8.15;;;3.35;;
26574;SDS011;67165;50.256;10.978;2023-08-08T00:31:56;6.82;;;3.33;;
26574;SDS011;67165;50.256;10.978;2023-08-08T00:34:22;9.20;;;3.42;;
26574;SDS011;67165;50.256;10.978;2023-08-08T00:36:48;9.38;;;3.70;;
26574;SDS011;67165;50.256;10.978;2023-08-08T00:39:13;7.18;;;3.42;;
26574;SDS011;67165;50.256;10.978;2023-08-08T00:41:39;8.63;;;3.80;;
26574;SDS011;67165;50.256;10.978;2023-08-08T00:44:05;7.40;;;3.30;;
26574;SDS011;67165;50.256;10.978;2023-08-08T00:46:30;7.63;;;3.38;;
26574;SDS011;67165;50.256;10.978;2023-08-08T00:48:56;5.80;;;3.20;;
26574;SDS011;67165;50.256;10.978;2023-08-08T00:51:22;8.45;;;3.38;;
26574;SDS011;67165;50.256;10.978;2023-08-08T00:53:49;10.50;;;3.70;;
26574;SDS011;67165;50.256;10.978;2023-08-08T00:56:15;13.05;;;3.72;;
26574;SDS011;67165;50.256;10.978;2023-08-08T00:58:42;9.20;;;3.50;;
26574;SDS011;67165;50.256;10.978;2023-08-08T01:01:10;5.70;;;3.42;;
26574;SDS011;67165;50.256;10.978;2023-08-08T01:03:36;7.40;;;3.67;;
26574;SDS011;67165;50.256;10.978;2023-08-08T01:06:03;9.18;;;3.60;;
26574;SDS011;67165;50.256;10.978;2023-08-08T01:08:42;6.35;;;3.60;;
26574;SDS011;67165;50.256;10.978;2023-08-08T01:11:13;7.15;;;3.50;;
26574;SDS011;67165;50.256;10.978;2023-08-08T01:13:41;6.32;;;3.38;;
26574;SDS011;67165;50.256;10.978;2023-08-08T01:16:08;6.20;;;3.35;;
26574;SDS011;67165;50.256;10.978;2023-08-08T01:18:35;9.68;;;3.63;;
26574;SDS011;67165;50.256;10.978;2023-08-08T01:21:03;8.30;;;3.17;;
26574;SDS011;67165;50.256;10.978;2023-08-08T01:26:18;5.50;;;3.28;;
26574;SDS011;67165;50.256;10.978;2023-08-08T01:28:46;9.82;;;3.50;;
26574;SDS011;67165;50.256;10.978;2023-08-08T01:31:11;7.68;;;3.70;;
26574;SDS011;67165;50.256;10.978;2023-08-08T01:33:37;10.10;;;3.72;;
26574;SDS011;67165;50.256;10.978;2023-08-08T01:36:05;7.57;;;3.22;;
26574;SDS011;67165;50.256;10.978;2023-08-08T01:38:40;7.65;;;3.30;;
26574;SDS011;67165;50.256;10.978;2023-08-08T01:41:07;5.75;;;3.30;;
26574;SDS011;67165;50.256;10.978;2023-08-08T01:43:34;7.70;;;3.40;;
26574;SDS011;67165;50.256;10.978;2023-08-08T01:46:00;6.60;;;3.38;;
26574;SDS011;67165;50.256;10.978;2023-08-08T01:48:27;6.88;;;3.60;;
26574;SDS011;67165;50.256;10.978;2023-08-08T01:50:53;7.15;;;3.45;;
26574;SDS011;67165;50.256;10.978;2023-08-08T01:53:19;5.95;;;3.40;;
26574;SDS011;67165;50.256;10.978;2023-08-08T01:55:44;8.63;;;3.70;;
26574;SDS011;67165;50.256;10.978;2023-08-08T01:58:10;7.65;;;3.58;;
26574;SDS011;67165;50.256;10.978;2023-08-08T02:00:35;6.88;;;4.25;;
26574;SDS011;67165;50.256;10.978;2023-08-08T02:03:01;5.47;;;3.25;;
26574;SDS011;67165;50.256;10.978;2023-08-08T02:05:27;7.55;;;3.72;;
26574;SDS011;67165;50.256;10.978;2023-08-08T02:07:53;9.43;;;3.60;;
26574;SDS011;67165;50.256;10.978;2023-08-08T02:10:19;7.78;;;3.65;;
26574;SDS011;67165;50.256;10.978;2023-08-08T02:12:44;9.60;;;4.20;;
26574;SDS011;67165;50.256;10.978;2023-08-08T02:15:10;6.85;;;3.50;;
26574;SDS011;67165;50.256;10.978;2023-08-08T02:17:37;7.00;;;3.80;;
26574;SDS011;67165;50.256;10.978;2023-08-08T02:20:04;6.57;;;3.90;;
26574;SDS011;67165;50.256;10.978;2023-08-08T02:22:31;6.63;;;3.92;;
26574;SDS011;67165;50.256;10.978;2023-08-08T02:24:56;8.82;;;4.13;;
26574;SDS011;67165;50.256;10.978;2023-08-08T02:27:22;8.05;;;3.97;;
26574;SDS011;67165;50.256;10.978;2023-08-08T02:29:48;7.85;;;3.70;;
26574;SDS011;67165;50.256;10.978;2023-08-08T02:32:13;6.00;;;3.90;;
26574;SDS011;67165;50.256;10.978;2023-08-08T02:34:39;6.90;;;4.07;;
26574;SDS011;67165;50.256;10.978;2023-08-08T02:37:05;9.18;;;4.40;;
26574;SDS011;67165;50.256;10.978;2023-08-08T02:39:30;7.00;;;4.25;;
26574;SDS011;67165;50.256;10.978;2023-08-08T02:41:56;7.55;;;4.35;;
26574;SDS011;67165;50.256;10.978;2023-08-08T02:44:21;7.55;;;4.25;;
26574;SDS011;67165;50.256;10.978;2023-08-08T02:46:47;8.95;;;4.28;;
26574;SDS011;67165;50.256;10.978;2023-08-08T02:49:13;7.28;;;4.20;;
26574;SDS011;67165;50.256;10.978;2023-08-08T02:51:39;9.15;;;4.35;;
26574;SDS011;67165;50.256;10.978;2023-08-08T02:54:05;8.45;;;4.35;;
26574;SDS011;67165;50.256;10.978;2023-08-08T02:56:30;8.93;;;4.75;;
26574;SDS011;67165;50.256;10.978;2023-08-08T02:58:56;10.43;;;4.50;;
26574;SDS011;67165;50.256;10.978;2023-08-08T03:01:23;9.35;;;4.20;;
26574;SDS011;67165;50.256;10.978;2023-08-08T03:03:48;10.25;;;4.15;;
26574;SDS011;67165;50.256;10.978;2023-08-08T03:06:14;8.60;;;4.35;;
26574;SDS011;67165;50.256;10.978;2023-08-08T03:08:40;6.68;;;4.18;;
26574;SDS011;67165;50.256;10.978;2023-08-08T03:11:06;8.68;;;3.85;;
26574;SDS011;67165;50.256;10.978;2023-08-08T03:13:32;7.10;;;3.85;;
26574;SDS011;67165;50.256;10.978;2023-08-08T03:15:57;8.43;;;4.20;;
26574;SDS011;67165;50.256;10.978;2023-08-08T03:18:23;6.45;;;4.38;;
26574;SDS011;67165;50.256;10.978;2023-08-08T03:20:50;8.77;;;4.40;;
26574;SDS011;67165;50.256;10.978;2023-08-08T03:23:16;7.43;;;3.70;;
26574;SDS011;67165;50.256;10.978;2023-08-08T03:25:42;8.00;;;4.80;;
26574;SDS011;67165;50.256;10.978;2023-08-08T03:28:08;9.30;;;4.75;;
26574;SDS011;67165;50.256;10.978;2023-08-08T03:30:35;7.85;;;4.65;;
26574;SDS011;67165;50.256;10.978;2023-08-08T03:33:02;6.80;;;4.57;;
26574;SDS011;67165;50.256;10.978;2023-08-08T03:35:28;12.43;;;4.78;;
26574;SDS011;67165;50.256;10.978;2023-08-08T03:37:53;15.38;;;4.90;;
26574;SDS011;67165;50.256;10.978;2023-08-08T03:40:19;10.43;;;4.70;;
26574;SDS011;67165;50.256;10.978;2023-08-08T03:42:44;9.93;;;4.75;;
26574;SDS011;67165;50.256;10.978;2023-08-08T03:45:10;9.77;;;4.90;;
26574;SDS011;67165;50.256;10.978;2023-08-08T03:47:36;12.30;;;5.07;;
26574;SDS011;67165;50.256;10.978;2023-08-08T03:50:01;5.82;;;4.47;;
26574;SDS011;67165;50.256;10.978;2023-08-08T03:52:27;9.27;;;4.55;;
26574;SDS011;67165;50.256;10.978;2023-08-08T03:54:54;13.18;;;4.97;;
26574;SDS011;67165;50.256;10.978;2023-08-08T03:57:19;9.50;;;4.65;;
26574;SDS011;67165;50.256;10.978;2023-08-08T03:59:45;8.48;;;4.40;;
26574;SDS011;67165;50.256;10.978;2023-08-08T04:02:10;10.90;;;4.20;;
26574;SDS011;67165;50.256;10.978;2023-08-08T04:04:36;8.05;;;4.80;;
26574;SDS011;67165;50.256;10.978;2023-08-08T04:07:03;8.50;;;5.10;;
26574;SDS011;67165;50.256;10.978;2023-08-08T04:09:29;8.20;;;5.00;;
26574;SDS011;67165;50.256;10.978;2023-08-08T04:11:55;8.20;;;4.70;;
26574;SDS011;67165;50.256;10.978;2023-08-08T04:14:20;10.18;;;4.82;;
26574;SDS011;67165;50.256;10.978;2023-08-08T04:16:46;10.07;;;5.43;;
26574;SDS011;67165;50.256;10.978;2023-08-08T04:19:12;10.65;;;5.00;;
26574;SDS011;67165;50.256;10.978;2023-08-08T04:21:37;7.75;;;5.18;;
26574;SDS011;67165;50.256;10.978;2023-08-08T04:24:03;14.95;;;5.18;;
26574;SDS011;67165;50.256;10.978;2023-08-08T04:26:29;8.30;;;4.63;;
26574;SDS011;67165;50.256;10.978;2023-08-08T04:28:54;7.28;;;4.47;;
26574;SDS011;67165;50.256;10.978;2023-08-08T04:31:20;9.07;;;5.13;;
26574;SDS011;67165;50.256;10.978;2023-08-08T04:33:49;7.60;;;4.82;;
26574;SDS011;67165;50.256;10.978;2023-08-08T04:36:15;8.95;;;4.57;;
26574;SDS011;67165;50.256;10.978;2023-08-08T04:38:40;11.13;;;5.13;;
26574;SDS011;67165;50.256;10.978;2023-08-08T04:41:06;8.32;;;4.75;;
26574;SDS011;67165;50.256;10.978;2023-08-08T04:43:32;8.77;;;4.90;;
26574;SDS011;67165;50.256;10.978;2023-08-08T04:45:57;11.85;;;4.70;;
26574;SDS011;67165;50.256;10.978;2023-08-08T04:48:23;9.80;;;4.82;;
26574;SDS011;67165;50.256;10.978;2023-08-08T04:50:49;11.90;;;4.78;;
26574;SDS011;67165;50.256;10.978;2023-08-08T04:53:14;8.07;;;4.50;;
26574;SDS011;67165;50.256;10.978;2023-08-08T04:55:40;9.70;;;4.35;;
26574;SDS011;67165;50.256;10.978;2023-08-08T04:58:05;8.02;;;4.40;;
26574;SDS011;67165;50.256;10.978;2023-08-08T05:00:31;8.07;;;4.63;;
26574;SDS011;67165;50.256;10.978;2023-08-08T05:02:57;6.78;;;4.63;;
26574;SDS011;67165;50.256;10.978;2023-08-08T05:05:22;6.55;;;4.53;;
26574;SDS011;67165;50.256;10.978;2023-08-08T05:07:48;9.57;;;4.35;;
26574;SDS011;67165;50.256;10.978;2023-08-08T05:10:14;8.20;;;4.88;;
26574;SDS011;67165;50.256;10.978;2023-08-08T05:12:39;7.60;;;4.82;;
26574;SDS011;67165;50.256;10.978;2023-08-08T05:15:05;8.77;;;4.80;;
26574;SDS011;67165;50.256;10.978;2023-08-08T05:17:31;9.20;;;4.97;;
26574;SDS011;67165;50.256;10.978;2023-08-08T05:19:57;7.60;;;4.97;;
26574;SDS011;67165;50.256;10.978;2023-08-08T05:22:23;9.95;;;4.65;;
26574;SDS011;67165;50.256;10.978;2023-08-08T05:24:48;10.23;;;4.70;;
26574;SDS011;67165;50.256;10.978;2023-08-08T05:27:14;9.70;;;4.70;;
26574;SDS011;67165;50.256;10.978;2023-08-08T05:29:39;9.20;;;4.35;;
26574;SDS011;67165;50.256;10.978;2023-08-08T05:32:06;5.72;;;4.05;;
26574;SDS011;67165;50.256;10.978;2023-08-08T05:34:33;6.90;;;4.00;;
26574;SDS011;67165;50.256;10.978;2023-08-08T05:36:59;6.57;;;3.70;;
26574;SDS011;67165;50.256;10.978;2023-08-08T05:39:24;6.00;;;3.85;;
26574;SDS011;67165;50.256;10.978;2023-08-08T05:41:50;8.07;;;4.18;;
26574;SDS011;67165;50.256;10.978;2023-08-08T05:44:16;7.85;;;3.95;;
26574;SDS011;67165;50.256;10.978;2023-08-08T05:46:41;4.22;;;3.20;;
26574;SDS011;67165;50.256;10.978;2023-08-08T05:49:07;6.07;;;3.40;;
26574;SDS011;67165;50.256;10.978;2023-08-08T05:51:33;8.88;;;3.55;;
26574;SDS011;67165;50.256;10.978;2023-08-08T05:53:59;4.47;;;3.22;;
26574;SDS011;67165;50.256;10.978;2023-08-08T05:56:24;4.72;;;3.30;;
26574;SDS011;67165;50.256;10.978;2023-08-08T05:58:52;8.05;;;3.30;;
26574;SDS011;67165;50.256;10.978;2023-08-08T06:01:18;5.15;;;3.10;;
26574;SDS011;67165;50.256;10.978;2023-08-08T06:03:44;5.57;;;3.00;;
26574;SDS011;67165;50.256;10.978;2023-08-08T06:06:09;5.85;;;2.80;;
26574;SDS011;67165;50.256;10.978;2023-08-08T06:08:35;5.18;;;2.70;;
26574;SDS011;67165;50.256;10.978;2023-08-08T06:11:01;4.13;;;3.20;;
26574;SDS011;67165;50.256;10.978;2023-08-08T06:13:27;5.03;;;3.17;;
26574;SDS011;67165;50.256;10.978;2023-08-08T06:15:52;4.75;;;2.75;;
26574;SDS011;67165;50.256;10.978;2023-08-08T06:18:18;6.10;;;3.08;;
26574;SDS011;67165;50.256;10.978;2023-08-08T06:20:44;4.40;;;2.90;;
26574;SDS011;67165;50.256;10.978;2023-08-08T06:23:10;4.28;;;2.60;;
26574;SDS011;67165;50.256;10.978;2023-08-08T06:25:36;5.22;;;2.83;;
26574;SDS011;67165;50.256;10.978;2023-08-08T06:28:03;6.40;;;2.80;;
26574;SDS011;67165;50.256;10.978;2023-08-08T06:30:29;5.72;;;2.75;;
26574;SDS011;67165;50.256;10.978;2023-08-08T06:32:55;4.38;;;3.25;;
26574;SDS011;67165;50.256;10.978;2023-08-08T06:35:20;5.10;;;3.13;;
26574;SDS011;67165;50.256;10.978;2023-08-08T06:37:46;6.85;;;2.88;;
26574;SDS011;67165;50.256;10.978;2023-08-08T06:40:12;7.82;;;2.90;;
26574;SDS011;67165;50.256;10.978;2023-08-08T06:42:38;7.70;;;2.63;;
26574;SDS011;67165;50.256;10.978;2023-08-08T06:45:04;2.50;;;2.10;;
26574;SDS011;67165;50.256;10.978;2023-08-08T06:47:30;4.45;;;2.95;;
26574;SDS011;67165;50.256;10.978;2023-08-08T06:49:56;4.32;;;2.60;;
26574;SDS011;67165;50.256;10.978;2023-08-08T06:52:22;6.53;;;2.50;;
26574;SDS011;67165;50.256;10.978;2023-08-08T06:54:47;3.72;;;2.22;;
26574;SDS011;67165;50.256;10.978;2023-08-08T06:57:13;3.00;;;2.13;;
26574;SDS011;67165;50.256;10.978;2023-08-08T06:59:38;3.78;;;2.17;;
26574;SDS011;67165;50.256;10.978;2023-08-08T07:02:04;4.95;;;2.22;;
26574;SDS011;67165;50.256;10.978;2023-08-08T07:04:32;5.57;;;2.17;;
26574;SDS011;67165;50.256;10.978;2023-08-08T07:06:58;6.45;;;2.40;;
26574;SDS011;67165;50.256;10.978;2023-08-08T07:09:24;6.28;;;2.10;;
26574;SDS011;67165;50.256;10.978;2023-08-08T07:11:50;2.75;;;2.00;;
26574;SDS011;67165;50.256;10.978;2023-08-08T07:14:16;2.60;;;2.10;;
26574;SDS011;67165;50.256;10.978;2023-08-08T07:16:41;2.58;;;1.83;;
26574;SDS011;67165;50.256;10.978;2023-08-08T07:19:07;3.78;;;2.20;;
26574;SDS011;67165;50.256;10.978;2023-08-08T07:21:32;3.25;;;1.92;;
26574;SDS011;67165;50.256;10.978;2023-08-08T07:23:58;4.18;;;2.13;;
26574;SDS011;67165;50.256;10.978;2023-08-08T07:26:24;2.78;;;1.92;;
26574;SDS011;67165;50.256;10.978;2023-08-08T07:28:49;3.45;;;2.03;;
26574;SDS011;67165;50.256;10.978;2023-08-08T07:31:15;2.25;;;1.85;;
26574;SDS011;67165;50.256;10.978;2023-08-08T07:33:41;3.65;;;2.08;;
26574;SDS011;67165;50.256;10.978;2023-08-08T07:36:06;2.72;;;1.92;;
26574;SDS011;67165;50.256;10.978;2023-08-08T07:38:32;3.97;;;1.90;;
26574;SDS011;67165;50.256;10.978;2023-08-08T07:40:58;2.70;;;1.70;;
26574;SDS011;67165;50.256;10.978;2023-08-08T07:43:23;3.67;;;1.60;;
26574;SDS011;67165;50.256;10.978;2023-08-08T07:45:49;2.78;;;1.85;;
26574;SDS011;67165;50.256;10.978;2023-08-08T07:48:15;2.38;;;1.80;;
26574;SDS011;67165;50.256;10.978;2023-08-08T07:50:40;3.28;;;1.70;;
26574;SDS011;67165;50.256;10.978;2023-08-08T07:53:06;3.40;;;1.75;;
26574;SDS011;67165;50.256;10.978;2023-08-08T07:55:32;3.45;;;1.90;;
26574;SDS011;67165;50.256;10.978;2023-08-08T07:57:58;4.65;;;1.60;;
26574;SDS011;67165;50.256;10.978;2023-08-08T08:00:23;3.78;;;1.80;;
26574;SDS011;67165;50.256;10.978;2023-08-08T08:02:49;2.10;;;1.60;;
26574;SDS011;67165;50.256;10.978;2023-08-08T08:05:15;3.50;;;1.67;;
26574;SDS011;67165;50.256;10.978;2023-08-08T08:07:40;2.55;;;1.50;;
26574;SDS011;67165;50.256;10.978;2023-08-08T08:10:08;3.28;;;1.75;;
26574;SDS011;67165;50.256;10.978;2023-08-08T08:12:38;4.40;;;1.88;;
26574;SDS011;67165;50.256;10.978;2023-08-08T08:15:05;4.18;;;1.77;;
26574;SDS011;67165;50.256;10.978;2023-08-08T08:17:31;2.38;;;1.75;;
26574;SDS011;67165;50.256;10.978;2023-08-08T08:19:57;2.45;;;1.65;;
26574;SDS011;67165;50.256;10.978;2023-08-08T08:22:23;2.42;;;1.73;;
26574;SDS011;67165;50.256;10.978;2023-08-08T08:24:49;3.65;;;1.85;;
26574;SDS011;67165;50.256;10.978;2023-08-08T08:27:15;2.58;;;1.60;;
26574;SDS011;67165;50.256;10.978;2023-08-08T08:29:40;3.53;;;1.65;;
26574;SDS011;67165;50.256;10.978;2023-08-08T08:32:06;2.75;;;1.98;;
26574;SDS011;67165;50.256;10.978;2023-08-08T08:34:32;4.85;;;1.95;;
26574;SDS011;67165;50.256;10.978;2023-08-08T08:36:57;3.05;;;1.80;;
26574;SDS011;67165;50.256;10.978;2023-08-08T08:39:23;6.45;;;1.80;;
26574;SDS011;67165;50.256;10.978;2023-08-08T08:41:49;3.53;;;1.73;;
26574;SDS011;67165;50.256;10.978;2023-08-08T08:44:19;3.42;;;1.83;;
26574;SDS011;67165;50.256;10.978;2023-08-08T08:46:47;5.20;;;2.28;;
26574;SDS011;67165;50.256;10.978;2023-08-08T08:49:15;6.97;;;2.03;;
26574;SDS011;67165;50.256;10.978;2023-08-08T08:51:42;3.25;;;1.70;;
26574;SDS011;67165;50.256;10.978;2023-08-08T08:54:08;3.10;;;1.90;;
26574;SDS011;67165;50.256;10.978;2023-08-08T08:56:35;3.20;;;1.50;;
26574;SDS011;67165;50.256;10.978;2023-08-08T08:59:00;4.47;;;1.90;;
26574;SDS011;67165;50.256;10.978;2023-08-08T09:01:26;3.70;;;1.80;;
26574;SDS011;67165;50.256;10.978;2023-08-08T09:03:53;2.42;;;1.70;;
26574;SDS011;67165;50.256;10.978;2023-08-08T09:06:19;2.72;;;1.60;;
26574;SDS011;67165;50.256;10.978;2023-08-08T09:08:46;4.72;;;1.60;;
26574;SDS011;67165;50.256;10.978;2023-08-08T09:11:12;2.45;;;1.63;;
26574;SDS011;67165;50.256;10.978;2023-08-08T09:13:39;5.20;;;1.73;;
26574;SDS011;67165;50.256;10.978;2023-08-08T09:16:08;5.80;;;1.80;;
26574;SDS011;67165;50.256;10.978;2023-08-08T09:18:34;5.00;;;1.80;;
26574;SDS011;67165;50.256;10.978;2023-08-08T09:21:03;3.05;;;1.48;;
26574;SDS011;67165;50.256;10.978;2023-08-08T09:23:30;2.60;;;1.60;;
26574;SDS011;67165;50.256;10.978;2023-08-08T09:25:55;2.38;;;1.70;;
26574;SDS011;67165;50.256;10.978;2023-08-08T09:28:21;2.28;;;1.40;;
26574;SDS011;67165;50.256;10.978;2023-08-08T09:30:47;2.63;;;1.80;;
26574;SDS011;67165;50.256;10.978;2023-08-08T09:33:12;1.67;;;1.40;;
26574;SDS011;67165;50.256;10.978;2023-08-08T09:35:38;3.47;;;1.60;;
26574;SDS011;67165;50.256;10.978;2023-08-08T09:38:04;4.43;;;1.67;;
26574;SDS011;67165;50.256;10.978;2023-08-08T09:40:30;1.77;;;1.45;;
26574;SDS011;67165;50.256;10.978;2023-08-08T09:42:56;2.28;;;1.60;;
26574;SDS011;67165;50.256;10.978;2023-08-08T09:45:23;1.50;;;1.35;;
26574;SDS011;67165;50.256;10.978;2023-08-08T09:47:52;3.25;;;1.40;;
26574;SDS011;67165;50.256;10.978;2023-08-08T09:50:18;3.22;;;1.60;;
26574;SDS011;67165;50.256;10.978;2023-08-08T09:52:45;1.73;;;1.40;;
26574;SDS011;67165;50.256;10.978;2023-08-08T09:55:12;2.45;;;1.48;;
26574;SDS011;67165;50.256;10.978;2023-08-08T09:57:38;3.53;;;1.50;;
26574;SDS011;67165;50.256;10.978;2023-08-08T10:00:05;1.70;;;1.40;;
26574;SDS011;67165;50.256;10.978;2023-08-08T10:02:35;2.38;;;1.48;;
26574;SDS011;67165;50.256;10.978;2023-08-08T10:05:02;2.78;;;1.58;;
26574;SDS011;67165;50.256;10.978;2023-08-08T10:07:29;4.18;;;2.08;;
26574;SDS011;67165;50.256;10.978;2023-08-08T10:09:55;2.00;;;1.48;;
26574;SDS011;67165;50.256;10.978;2023-08-08T10:12:23;3.72;;;1.50;;
26574;SDS011;67165;50.256;10.978;2023-08-08T10:14:50;2.50;;;1.60;;
26574;SDS011;67165;50.256;10.978;2023-08-08T10:17:17;3.65;;;1.52;;
26574;SDS011;67165;50.256;10.978;2023-08-08T10:19:55;4.13;;;1.50;;
26574;SDS011;67165;50.256;10.978;2023-08-08T10:22:22;2.28;;;1.60;;
26574;SDS011;67165;50.256;10.978;2023-08-08T10:24:52;2.25;;;1.30;;
26574;SDS011;67165;50.256;10.978;2023-08-08T10:32:41;2.47;;;1.58;;
26574;SDS011;67165;50.256;10.978;2023-08-08T10:35:08;3.17;;;1.60;;
26574;SDS011;67165;50.256;10.978;2023-08-08T10:37:35;1.60;;;1.30;;
26574;SDS011;67165;50.256;10.978;2023-08-08T10:40:02;2.03;;;1.38;;
26574;SDS011;67165;50.256;10.978;2023-08-08T10:42:32;2.90;;;1.95;;
26574;SDS011;67165;50.256;10.978;2023-08-08T10:45:11;4.45;;;1.63;;
26574;SDS011;67165;50.256;10.978;2023-08-08T10:47:38;2.35;;;1.48;;
26574;SDS011;67165;50.256;10.978;2023-08-08T10:50:09;2.45;;;1.40;;
26574;SDS011;67165;50.256;10.978;2023-08-08T10:55:30;3.38;;;1.45;;
26574;SDS011;67165;50.256;10.978;2023-08-08T10:58:10;3.22;;;1.42;;
26574;SDS011;67165;50.256;10.978;2023-08-08T11:00:40;1.90;;;1.50;;
26574;SDS011;67165;50.256;10.978;2023-08-08T11:03:06;4.07;;;1.75;;
26574;SDS011;67165;50.256;10.978;2023-08-08T11:05:34;3.35;;;1.50;;
26574;SDS011;67165;50.256;10.978;2023-08-08T11:08:02;4.15;;;1.52;;
26574;SDS011;67165;50.256;10.978;2023-08-08T11:10:29;3.17;;;1.40;;
26574;SDS011;67165;50.256;10.978;2023-08-08T11:13:01;3.13;;;1.80;;
26574;SDS011;67165;50.256;10.978;2023-08-08T11:15:34;2.35;;;1.40;;
26574;SDS011;67165;50.256;10.978;2023-08-08T11:18:02;3.28;;;1.60;;
26574;SDS011;67165;50.256;10.978;2023-08-08T11:20:34;4.45;;;1.45;;
26574;SDS011;67165;50.256;10.978;2023-08-08T11:23:01;2.83;;;1.70;;
26574;SDS011;67165;50.256;10.978;2023-08-08T11:25:30;2.30;;;1.45;;
26574;SDS011;67165;50.256;10.978;2023-08-08T11:27:56;3.45;;;1.50;;
26574;SDS011;67165;50.256;10.978;2023-08-08T11:30:24;2.65;;;1.50;;
26574;SDS011;67165;50.256;10.978;2023-08-08T11:32:59;3.42;;;1.70;;
26574;SDS011;67165;50.256;10.978;2023-08-08T11:35:25;2.67;;;1.58;;
26574;SDS011;67165;50.256;10.978;2023-08-08T11:37:52;2.10;;;1.45;;
26574;SDS011;67165;50.256;10.978;2023-08-08T11:40:20;2.22;;;1.50;;
26574;SDS011;67165;50.256;10.978;2023-08-08T11:42:47;2.25;;;1.60;;
26574;SDS011;67165;50.256;10.978;2023-08-08T11:45:15;2.80;;;1.40;;
26574;SDS011;67165;50.256;10.978;2023-08-08T11:47:41;3.40;;;1.83;;
26574;SDS011;67165;50.256;10.978;2023-08-08T11:50:08;2.88;;;1.67;;
26574;SDS011;67165;50.256;10.978;2023-08-08T11:52:36;5.43;;;1.63;;
26574;SDS011;67165;50.256;10.978;2023-08-08T11:55:08;3.38;;;1.63;;
26574;SDS011;67165;50.256;10.978;2023-08-08T11:57:35;1.73;;;1.45;;
26574;SDS011;67165;50.256;10.978;2023-08-08T12:00:08;3.35;;;1.70;;
26574;SDS011;67165;50.256;10.978;2023-08-08T12:02:39;3.00;;;1.70;;
26574;SDS011;67165;50.256;10.978;2023-08-08T12:05:07;1.75;;;1.45;;
26574;SDS011;67165;50.256;10.978;2023-08-08T12:07:38;1.85;;;1.30;;
26574;SDS011;67165;50.256;10.978;2023-08-08T12:10:13;3.58;;;1.50;;
26574;SDS011;67165;50.256;10.978;2023-08-08T12:12:44;2.20;;;1.67;;
26574;SDS011;67165;50.256;10.978;2023-08-08T12:15:10;3.63;;;1.55;;
26574;SDS011;67165;50.256;10.978;2023-08-08T12:17:36;4.25;;;1.70;;
26574;SDS011;67165;50.256;10.978;2023-08-08T12:20:06;2.80;;;1.45;;
26574;SDS011;67165;50.256;10.978;2023-08-08T12:22:33;4.88;;;1.75;;
26574;SDS011;67165;50.256;10.978;2023-08-08T12:24:59;2.15;;;1.50;;
26574;SDS011;67165;50.256;10.978;2023-08-08T12:27:25;4.07;;;1.60;;
26574;SDS011;67165;50.256;10.978;2023-08-08T12:29:51;4.85;;;1.65;;
26574;SDS011;67165;50.256;10.978;2023-08-08T12:32:19;2.53;;;1.50;;
26574;SDS011;67165;50.256;10.978;2023-08-08T12:34:45;2.75;;;1.52;;
26574;SDS011;67165;50.256;10.978;2023-08-08T12:37:10;2.35;;;1.40;;
26574;SDS011;67165;50.256;10.978;2023-08-08T12:39:36;2.13;;;1.40;;
26574;SDS011;67165;50.256;10.978;2023-08-08T12:42:02;3.95;;;1.67;;
26574;SDS011;67165;50.256;10.978;2023-08-08T12:44:27;3.13;;;1.70;;
26574;SDS011;67165;50.256;10.978;2023-08-08T12:46:53;1.55;;;1.30;;
26574;SDS011;67165;50.256;10.978;2023-08-08T12:49:19;2.40;;;1.52;;
26574;SDS011;67165;50.256;10.978;2023-08-08T12:51:44;2.30;;;1.50;;
26574;SDS011;67165;50.256;10.978;2023-08-08T12:54:10;5.18;;;1.67;;
26574;SDS011;67165;50.256;10.978;2023-08-08T12:56:35;2.10;;;1.50;;
26574;SDS011;67165;50.256;10.978;2023-08-08T12:59:01;5.43;;;1.60;;
26574;SDS011;67165;50.256;10.978;2023-08-08T13:01:28;3.15;;;1.80;;
26574;SDS011;67165;50.256;10.978;2023-08-08T13:03:53;2.90;;;1.40;;
26574;SDS011;67165;50.256;10.978;2023-08-08T13:06:19;4.38;;;1.63;;
26574;SDS011;67165;50.256;10.978;2023-08-08T13:08:45;3.67;;;1.65;;
26574;SDS011;67165;50.256;10.978;2023-08-08T13:11:10;2.17;;;1.50;;
26574;SDS011;67165;50.256;10.978;2023-08-08T13:13:36;3.38;;;1.58;;
26574;SDS011;67165;50.256;10.978;2023-08-08T13:16:02;2.88;;;1.48;;
26574;SDS011;67165;50.256;10.978;2023-08-08T13:18:28;3.00;;;1.45;;
26574;SDS011;67165;50.256;10.978;2023-08-08T13:20:53;3.00;;;1.70;;
26574;SDS011;67165;50.256;10.978;2023-08-08T13:23:19;3.33;;;1.33;;
26574;SDS011;67165;50.256;10.978;2023-08-08T13:25:45;3.55;;;1.55;;
26574;SDS011;67165;50.256;10.978;2023-08-08T13:28:10;2.50;;;1.40;;
26574;SDS011;67165;50.256;10.978;2023-08-08T13:30:36;2.13;;;1.40;;
26574;SDS011;67165;50.256;10.978;2023-08-08T13:33:02;2.45;;;1.60;;
26574;SDS011;67165;50.256;10.978;2023-08-08T13:35:28;1.77;;;1.30;;
26574;SDS011;67165;50.256;10.978;2023-08-08T13:37:55;3.33;;;1.50;;
26574;SDS011;67165;50.256;10.978;2023-08-08T13:40:21;2.20;;;1.55;;
26574;SDS011;67165;50.256;10.978;2023-08-08T13:42:46;3.30;;;1.80;;
26574;SDS011;67165;50.256;10.978;2023-08-08T13:45:16;3.08;;;1.52;;
26574;SDS011;67165;50.256;10.978;2023-08-08T13:47:46;3.85;;;1.77;;
26574;SDS011;67165;50.256;10.978;2023-08-08T13:50:12;3.88;;;1.60;;
26574;SDS011;67165;50.256;10.978;2023-08-08T13:52:39;2.05;;;1.40;;
26574;SDS011;67165;50.256;10.978;2023-08-08T13:55:06;3.65;;;1.83;;
26574;SDS011;67165;50.256;10.978;2023-08-08T13:57:32;1.60;;;1.20;;
26574;SDS011;67165;50.256;10.978;2023-08-08T13:59:58;3.40;;;1.60;;
26574;SDS011;67165;50.256;10.978;2023-08-08T14:02:23;2.35;;;1.77;;
26574;SDS011;67165;50.256;10.978;2023-08-08T14:04:49;3.10;;;1.40;;
26574;SDS011;67165;50.256;10.978;2023-08-08T14:07:15;3.33;;;1.70;;
26574;SDS011;67165;50.256;10.978;2023-08-08T14:09:41;2.35;;;1.40;;
26574;SDS011;67165;50.256;10.978;2023-08-08T14:12:07;3.28;;;1.52;;
26574;SDS011;67165;50.256;10.978;2023-08-08T14:14:32;2.30;;;1.70;;
26574;SDS011;67165;50.256;10.978;2023-08-08T14:16:58;4.60;;;1.70;;
26574;SDS011;67165;50.256;10.978;2023-08-08T14:19:24;3.10;;;1.50;;
26574;SDS011;67165;50.256;10.978;2023-08-08T14:21:49;2.50;;;1.45;;
26574;SDS011;67165;50.256;10.978;2023-08-08T14:24:15;3.40;;;1.48;;
26574;SDS011;67165;50.256;10.978;2023-08-08T14:26:41;2.33;;;1.63;;
26574;SDS011;67165;50.256;10.978;2023-08-08T14:29:06;2.45;;;1.52;;
26574;SDS011;67165;50.256;10.978;2023-08-08T14:31:32;3.30;;;1.55;;
26574;SDS011;67165;50.256;10.978;2023-08-08T14:33:57;4.15;;;1.90;;
26574;SDS011;67165;50.256;10.978;2023-08-08T14:36:23;1.83;;;1.40;;
26574;SDS011;67165;50.256;10.978;2023-08-08T14:38:49;3.95;;;1.80;;